Time;durP1;ratioP1;P1;durP2;ratioP2;P2;SDS_P1;SDS_P2;PMS_P1;PMS_P2;Temp;Humidity;BMP_temperature;BMP_pressure;BME280_temperature;BME280_humidity;BME280_pressure;Samples;Min_cycle;Max_cycle;Signal;HPM_P1;HPM_P2
2023/07/03 00:03:28;;;;;;;26.27;12.48;;;;;;;;;;6263320;22;20610;-90
2023/07/03 00:06:36;;;;;;;24.88;12.27;;;;;;;;;;6245025;23;20190;-91
2023/07/03 00:09:42;;;;;;;23.13;11.73;;;;;;;;;;6245925;23;20167;-93
2023/07/03 00:12:47;;;;;;;23.85;11.57;;;;;;;;;;6243348;23;20166;-91
2023/07/03 00:15:58;;;;;;;29.10;12.00;;;;;;;;;;6243064;22;20214;-94
2023/07/03 00:19:07;;;;;;;26.63;12.68;;;;;;;;;;6242648;22;20201;-92
2023/07/03 00:22:13;;;;;;;23.63;11.95;;;;;;;;;;6243327;23;20235;-93
2023/07/03 00:25:18;;;;;;;24.85;12.13;;;;;;;;;;6244148;23;20169;-92
2023/07/03 00:28:23;;;;;;;28.67;12.20;;;;;;;;;;6242457;23;20170;-92
2023/07/03 00:31:29;;;;;;;25.85;12.27;;;;;;;;;;6241928;22;20162;-93
2023/07/03 00:34:38;;;;;;;26.02;12.40;;;;;;;;;;6242288;22;20632;-92
2023/07/03 00:37:44;;;;;;;25.58;12.45;;;;;;;;;;6244920;23;20150;-90
2023/07/03 00:40:50;;;;;;;26.92;12.70;;;;;;;;;;6242376;23;20237;-92
2023/07/03 00:43:55;;;;;;;26.95;11.50;;;;;;;;;;6241797;23;20170;-93
2023/07/03 00:47:03;;;;;;;26.55;12.63;;;;;;;;;;6240681;23;20229;-93
2023/07/03 00:50:10;;;;;;;25.88;11.90;;;;;;;;;;6241669;23;20189;-93
2023/07/03 00:53:16;;;;;;;25.52;12.82;;;;;;;;;;6239619;23;20167;-91
2023/07/03 00:56:21;;;;;;;29.70;12.63;;;;;;;;;;6241163;23;20205;-91
2023/07/03 00:59:26;;;;;;;25.58;12.60;;;;;;;;;;6239556;22;20210;-92
2023/07/03 01:02:35;;;;;;;24.75;11.80;;;;;;;;;;6241336;23;20179;-92
2023/07/03 01:05:44;;;;;;;29.08;12.65;;;;;;;;;;6241744;22;20655;-92
2023/07/03 01:08:49;;;;;;;26.83;12.30;;;;;;;;;;6242642;23;20170;-92
2023/07/03 01:11:54;;;;;;;28.00;12.85;;;;;;;;;;6242913;23;20166;-91
2023/07/03 01:15:02;;;;;;;24.20;12.23;;;;;;;;;;6241831;23;20618;-92
2023/07/03 01:18:08;;;;;;;28.23;13.02;;;;;;;;;;6244048;23;20213;-92
2023/07/03 01:21:19;;;;;;;26.92;13.77;;;;;;;;;;6243659;23;20170;-92
2023/07/03 01:24:33;;;;;;;25.08;12.63;;;;;;;;;;6241935;23;20181;-92
2023/07/03 01:27:40;;;;;;;24.77;12.10;;;;;;;;;;6239960;23;20278;-92
2023/07/03 01:30:46;;;;;;;29.42;13.35;;;;;;;;;;6241230;22;20169;-93
2023/07/03 01:33:52;;;;;;;28.67;13.10;;;;;;;;;;6240921;23;20213;-94
2023/07/03 01:36:59;;;;;;;25.52;12.73;;;;;;;;;;6243881;23;20171;-93
2023/07/03 01:40:08;;;;;;;28.85;13.52;;;;;;;;;;6243886;23;20190;-94
2023/07/03 01:43:14;;;;;;;29.08;13.02;;;;;;;;;;6243684;23;20174;-93
2023/07/03 01:46:19;;;;;;;30.38;13.77;;;;;;;;;;6243263;23;20741;-90
2023/07/03 01:49:24;;;;;;;34.42;13.85;;;;;;;;;;6242856;23;20154;-91
2023/07/03 01:52:31;;;;;;;26.10;13.48;;;;;;;;;;6243556;23;20701;-92
2023/07/03 01:55:43;;;;;;;30.77;13.20;;;;;;;;;;6242808;23;20169;-92
2023/07/03 02:03:15;;;;;;;27.83;13.40;;;;;;;;;;6262610;23;20146;-92
2023/07/03 02:06:23;;;;;;;29.52;13.85;;;;;;;;;;6244519;23;20166;-92
2023/07/03 02:09:28;;;;;;;28.00;13.85;;;;;;;;;;6244786;23;20214;-92
2023/07/03 02:12:41;;;;;;;33.75;13.85;;;;;;;;;;6244076;23;20158;-93
2023/07/03 02:15:47;;;;;;;29.27;14.00;;;;;;;;;;6244811;23;20154;-90
2023/07/03 02:19:28;;;;;;;31.10;14.15;;;;;;;;;;6243789;23;20174;-92
2023/07/03 02:22:33;;;;;;;28.73;13.93;;;;;;;;;;6245894;23;20178;-92
2023/07/03 02:25:38;;;;;;;35.47;14.18;;;;;;;;;;6246004;23;20174;-93
2023/07/03 02:28:45;;;;;;;30.73;14.55;;;;;;;;;;6243843;23;20242;-92
2023/07/03 02:31:50;;;;;;;29.05;14.00;;;;;;;;;;6244624;23;20166;-92
2023/07/03 02:34:55;;;;;;;29.55;14.35;;;;;;;;;;6244335;23;20170;-90
2023/07/03 02:38:00;;;;;;;28.50;13.43;;;;;;;;;;6243974;23;20218;-92
2023/07/03 02:41:05;;;;;;;34.35;13.93;;;;;;;;;;6243215;23;20171;-92
2023/07/03 02:44:12;;;;;;;31.63;14.48;;;;;;;;;;6243175;23;20218;-92
2023/07/03 02:47:17;;;;;;;29.38;14.27;;;;;;;;;;6243094;23;20229;-92
2023/07/03 02:50:23;;;;;;;28.95;13.88;;;;;;;;;;6242804;23;20189;-91
2023/07/03 02:53:28;;;;;;;30.05;13.70;;;;;;;;;;6242606;23;20701;-92
2023/07/03 02:56:41;;;;;;;30.55;14.07;;;;;;;;;;6241807;23;20249;-92
2023/07/03 02:59:47;;;;;;;27.83;13.48;;;;;;;;;;6241829;23;20613;-93
2023/07/03 03:02:53;;;;;;;29.48;13.60;;;;;;;;;;6242452;23;20158;-93
2023/07/03 03:05:58;;;;;;;33.00;15.00;;;;;;;;;;6243092;23;20170;-93
2023/07/03 03:09:05;;;;;;;29.65;13.30;;;;;;;;;;6243093;23;20170;-93
2023/07/03 03:12:12;;;;;;;30.67;13.38;;;;;;;;;;6242795;23;20494;-92
2023/07/03 03:15:19;;;;;;;32.92;14.15;;;;;;;;;;6243063;22;20178;-93
2023/07/03 03:18:24;;;;;;;27.88;13.55;;;;;;;;;;6244281;23;20198;-92
2023/07/03 03:21:30;;;;;;;29.15;13.52;;;;;;;;;;6243336;23;20166;-92
2023/07/03 03:24:35;;;;;;;31.98;14.60;;;;;;;;;;6243006;23;20170;-92
2023/07/03 03:27:40;;;;;;;30.73;13.55;;;;;;;;;;6244590;23;20206;-92
2023/07/03 03:30:47;;;;;;;29.73;13.60;;;;;;;;;;6244672;22;20173;-92
2023/07/03 03:33:52;;;;;;;31.60;13.77;;;;;;;;;;6248591;23;20150;-94
2023/07/03 03:36:58;;;;;;;30.88;13.77;;;;;;;;;;6244243;23;20175;-92
2023/07/03 03:40:07;;;;;;;29.77;13.32;;;;;;;;;;6245659;23;20177;-91
2023/07/03 03:43:13;;;;;;;27.50;14.13;;;;;;;;;;6244029;23;20170;-93
2023/07/03 03:46:20;;;;;;;32.47;15.57;;;;;;;;;;6242901;23;20173;-93
2023/07/03 03:49:28;;;;;;;29.77;14.27;;;;;;;;;;6242695;23;20189;-94
2023/07/03 03:52:34;;;;;;;34.33;14.43;;;;;;;;;;6241362;23;20223;-92
2023/07/03 03:55:39;;;;;;;32.17;15.02;;;;;;;;;;6243074;23;20174;-92
2023/07/03 03:58:49;;;;;;;31.25;14.27;;;;;;;;;;6242997;23;20190;-92
2023/07/03 04:05:48;;;;;;;31.88;14.05;;;;;;;;;;6242583;23;20159;-92
2023/07/03 04:08:58;;;;;;;28.38;13.88;;;;;;;;;;6243626;23;20246;-91
2023/07/03 04:12:03;;;;;;;36.90;15.18;;;;;;;;;;6243442;23;20194;-92
2023/07/03 04:15:10;;;;;;;34.72;14.55;;;;;;;;;;6243550;23;20182;-94
2023/07/03 04:18:15;;;;;;;29.90;14.13;;;;;;;;;;6242597;23;20170;-91
2023/07/03 04:21:23;;;;;;;32.38;14.70;;;;;;;;;;6242613;23;20166;-91
2023/07/03 04:24:28;;;;;;;29.33;13.88;;;;;;;;;;6243265;23;20211;-93
2023/07/03 04:27:33;;;;;;;28.83;14.45;;;;;;;;;;6243352;23;20178;-93
2023/07/03 04:30:39;;;;;;;29.00;13.82;;;;;;;;;;6244282;22;20239;-90
2023/07/03 04:33:45;;;;;;;32.55;14.48;;;;;;;;;;6245140;22;20183;-92
2023/07/03 22:32:05;;;;;;;20.83;7.40;;;;;;;;;;6224839;22;20206;-90
2023/07/03 22:35:10;;;;;;;19.10;6.70;;;;;;;;;;6242705;22;20497;-90
2023/07/03 22:38:16;;;;;;;17.67;6.97;;;;;;;;;;6244062;22;20167;-91
2023/07/03 22:41:22;;;;;;;16.20;6.68;;;;;;;;;;6245697;23;20175;-90
2023/07/03 22:44:27;;;;;;;15.73;6.45;;;;;;;;;;6246093;23;20669;-92
2023/07/03 22:47:34;;;;;;;13.95;6.97;;;;;;;;;;6245223;23;20258;-90
2023/07/03 22:50:40;;;;;;;17.52;7.15;;;;;;;;;;6243196;23;20197;-88
2023/07/03 22:53:47;;;;;;;19.15;7.90;;;;;;;;;;6241110;23;20169;-90
2023/07/03 22:57:15;;;;;;;17.25;6.93;;;;;;;;;;6242009;23;20178;-90
2023/07/03 23:00:21;;;;;;;17.40;7.53;;;;;;;;;;6242646;23;20170;-90
2023/07/03 23:03:28;;;;;;;22.48;7.53;;;;;;;;;;6242115;23;20171;-89
2023/07/03 23:06:35;;;;;;;16.27;6.82;;;;;;;;;;6243105;22;20170;-91
2023/07/03 23:09:41;;;;;;;25.48;7.22;;;;;;;;;;6242947;23;20185;-89
2023/07/03 23:12:48;;;;;;;16.48;7.47;;;;;;;;;;6243448;23;20169;-90
2023/07/03 23:15:54;;;;;;;15.13;7.50;;;;;;;;;;6242141;23;20170;-90
2023/07/03 23:19:28;;;;;;;15.63;7.65;;;;;;;;;;6242504;22;20170;-89
2023/07/03 23:22:35;;;;;;;21.20;7.70;;;;;;;;;;6241355;22;20217;-90
2023/07/03 23:25:40;;;;;;;15.65;7.25;;;;;;;;;;6240563;23;20152;-90
2023/07/03 23:28:45;;;;;;;24.35;8.15;;;;;;;;;;6239486;23;20637;-88
2023/07/03 23:31:51;;;;;;;21.52;8.55;;;;;;;;;;6240506;22;20198;-90
2023/07/03 23:34:56;;;;;;;21.30;7.68;;;;;;;;;;6241016;23;20166;-89
2023/07/03 23:38:02;;;;;;;19.17;7.38;;;;;;;;;;6240780;23;20190;-89
2023/07/03 23:41:08;;;;;;;17.50;7.85;;;;;;;;;;6239689;23;20242;-87
2023/07/03 23:44:13;;;;;;;23.98;8.45;;;;;;;;;;6240376;23;20173;-90
2023/07/03 23:47:19;;;;;;;24.60;8.43;;;;;;;;;;6240275;22;20166;-90
2023/07/03 23:50:24;;;;;;;19.75;8.43;;;;;;;;;;6241226;23;20203;-90
2023/07/03 23:53:32;;;;;;;20.13;8.20;;;;;;;;;;6240453;23;20507;-91
2023/07/03 23:56:50;;;;;;;19.65;8.52;;;;;;;;;;6239504;23;20290;-89
2023/07/03 23:59:55;;;;;;;18.98;8.63;;;;;;;;;;6239549;22;20174;-91
